Time;durP1;ratioP1;P1;durP2;ratioP2;P2;SDS_P1;SDS_P2;PMS_P1;PMS_P2;Temp;Humidity;BMP_temperature;BMP_pressure;BME280_temperature;BME280_humidity;BME280_pressure;Samples;Min_cycle;Max_cycle;Signal;HPM_P1;HPM_P2
2021/03/07 00:00:10;;;;;;;21.50;15.15;;;;;;;;;;10317267;28;20549;-62
2021/03/07 00:05:10;;;;;;;18.95;14.15;;;;;;;;;;10317236;28;20051;-61
2021/03/07 00:10:08;;;;;;;19.70;14.00;;;;;;;;;;10318004;28;20044;-60
2021/03/07 00:15:07;;;;;;;15.98;13.90;;;;;;;;;;10317346;28;20083;-62
2021/03/07 00:20:05;;;;;;;22.38;15.38;;;;;;;;;;10317391;28;20439;-62
2021/03/07 00:25:04;;;;;;;17.20;13.68;;;;;;;;;;10317392;28;20049;-59
2021/03/07 00:30:01;;;;;;;20.42;15.88;;;;;;;;;;10316779;28;20065;-61
2021/03/07 00:34:59;;;;;;;23.17;16.77;;;;;;;;;;10317154;28;20048;-60
2021/03/07 00:39:56;;;;;;;36.38;24.55;;;;;;;;;;10316644;28;20083;-61
2021/03/07 00:44:54;;;;;;;23.98;17.85;;;;;;;;;;10317370;28;20522;-59
2021/03/07 00:49:52;;;;;;;26.90;18.80;;;;;;;;;;10317108;28;20044;-58
2021/03/07 00:54:49;;;;;;;21.17;17.25;;;;;;;;;;10316540;28;20532;-60
2021/03/07 00:59:46;;;;;;;21.52;16.92;;;;;;;;;;10316246;28;20174;-62
2021/03/07 01:04:44;;;;;;;21.10;15.43;;;;;;;;;;10316830;28;20055;-60
2021/03/07 01:09:42;;;;;;;22.60;15.93;;;;;;;;;;10318165;28;20059;-61
2021/03/07 01:14:39;;;;;;;18.80;14.65;;;;;;;;;;10324194;28;20045;-63
2021/03/07 01:19:37;;;;;;;22.40;18.15;;;;;;;;;;10323803;28;20521;-61
2021/03/07 01:24:35;;;;;;;25.35;17.50;;;;;;;;;;10323983;28;20045;-61
2021/03/07 01:29:32;;;;;;;23.25;17.65;;;;;;;;;;10323141;28;20052;-59
2021/03/07 01:34:30;;;;;;;21.27;17.60;;;;;;;;;;10323914;28;20098;-59
2021/03/07 01:39:27;;;;;;;22.73;18.27;;;;;;;;;;10323341;28;20083;-59
2021/03/07 01:44:25;;;;;;;23.58;16.63;;;;;;;;;;10321636;28;20410;-58
2021/03/07 01:49:22;;;;;;;23.77;18.20;;;;;;;;;;10323229;28;20059;-59
2021/03/07 01:54:20;;;;;;;23.58;17.25;;;;;;;;;;10321191;28;20075;-59
2021/03/07 01:59:18;;;;;;;23.27;17.38;;;;;;;;;;10322301;28;20095;-59
2021/03/07 02:04:17;;;;;;;23.60;18.67;;;;;;;;;;10322454;28;20469;-60
2021/03/07 02:09:14;;;;;;;26.15;18.45;;;;;;;;;;10322337;28;20044;-59
2021/03/07 02:14:11;;;;;;;22.02;17.92;;;;;;;;;;10321938;28;20087;-58
2021/03/07 02:19:09;;;;;;;23.00;17.02;;;;;;;;;;10321899;28;20080;-59
2021/03/07 02:24:08;;;;;;;24.17;18.13;;;;;;;;;;10321087;28;20413;-59
2021/03/07 02:29:07;;;;;;;25.27;20.00;;;;;;;;;;10320414;28;20060;-59
2021/03/07 02:34:06;;;;;;;24.58;18.88;;;;;;;;;;10321101;28;20173;-59
2021/03/07 02:39:04;;;;;;;27.30;20.38;;;;;;;;;;10320500;28;20103;-59
2021/03/07 02:44:04;;;;;;;23.17;18.33;;;;;;;;;;10320578;28;20063;-59
2021/03/07 02:49:03;;;;;;;25.35;18.20;;;;;;;;;;10320698;28;20088;-59
2021/03/07 02:54:05;;;;;;;23.75;18.95;;;;;;;;;;10320397;28;20076;-59
2021/03/07 02:59:06;;;;;;;22.63;18.38;;;;;;;;;;10320508;28;20150;-60
2021/03/07 03:04:04;;;;;;;24.73;19.25;;;;;;;;;;10320505;28;20048;-63
2021/03/07 03:09:05;;;;;;;27.65;23.40;;;;;;;;;;10319586;28;20071;-60
2021/03/07 03:14:03;;;;;;;25.75;18.60;;;;;;;;;;10319019;28;20044;-60
2021/03/07 03:19:04;;;;;;;26.65;20.33;;;;;;;;;;10319374;28;20070;-60
2021/03/07 03:24:02;;;;;;;25.02;20.50;;;;;;;;;;10319579;28;20493;-60
2021/03/07 03:29:02;;;;;;;24.20;17.98;;;;;;;;;;10318510;28;20048;-60
2021/03/07 03:34:01;;;;;;;21.38;17.85;;;;;;;;;;10318704;28;20059;-60
2021/03/07 03:39:03;;;;;;;24.20;19.38;;;;;;;;;;10318079;28;20080;-61
2021/03/07 03:44:03;;;;;;;22.80;15.93;;;;;;;;;;10318697;28;20079;-59
2021/03/07 03:49:07;;;;;;;22.13;17.75;;;;;;;;;;10317937;28;20150;-60
2021/03/07 03:54:06;;;;;;;23.92;20.55;;;;;;;;;;10318049;28;20078;-60
2021/03/07 03:59:04;;;;;;;31.77;23.58;;;;;;;;;;10317489;28;20409;-59
2021/03/07 04:04:03;;;;;;;30.55;22.52;;;;;;;;;;10318015;28;20055;-60
2021/03/07 04:09:00;;;;;;;35.33;23.73;;;;;;;;;;10317597;28;20060;-60
2021/03/07 04:13:57;;;;;;;34.47;24.55;;;;;;;;;;10317265;28;20044;-60
2021/03/07 04:18:56;;;;;;;36.88;27.33;;;;;;;;;;10317012;28;20489;-60
2021/03/07 04:23:54;;;;;;;34.20;26.50;;;;;;;;;;10316715;28;20049;-60
2021/03/07 04:28:51;;;;;;;41.22;34.28;;;;;;;;;;10316562;28;20059;-60
2021/03/07 04:33:49;;;;;;;23.67;20.38;;;;;;;;;;10317364;28;20053;-60
2021/03/07 04:38:47;;;;;;;22.55;20.02;;;;;;;;;;10316635;28;20040;-60
2021/03/07 04:43:47;;;;;;;25.95;19.20;;;;;;;;;;10315593;28;20463;-60
2021/03/07 04:48:45;;;;;;;21.55;18.67;;;;;;;;;;10316936;28;20509;-60
2021/03/07 04:53:43;;;;;;;23.25;18.42;;;;;;;;;;10316091;28;20477;-60
2021/03/07 04:58:40;;;;;;;137.02;93.15;;;;;;;;;;10315630;28;20045;-61
2021/03/07 05:03:38;;;;;;;60.08;46.13;;;;;;;;;;10315782;28;20068;-60
2021/03/07 05:08:35;;;;;;;46.28;32.78;;;;;;;;;;10316008;28;20040;-60
2021/03/07 05:13:33;;;;;;;52.38;40.70;;;;;;;;;;10315946;28;20425;-60
2021/03/07 05:18:30;;;;;;;36.97;28.50;;;;;;;;;;10316062;28;20080;-61
2021/03/07 05:23:28;;;;;;;52.53;36.80;;;;;;;;;;10315612;28;20080;-60
2021/03/07 05:28:26;;;;;;;48.63;33.38;;;;;;;;;;10314683;28;20059;-60
2021/03/07 05:33:23;;;;;;;30.25;24.65;;;;;;;;;;10315261;28;20118;-61
2021/03/07 05:38:20;;;;;;;21.17;18.33;;;;;;;;;;10315754;28;20506;-60
2021/03/07 05:43:19;;;;;;;66.18;41.40;;;;;;;;;;10314897;28;20075;-62
2021/03/07 05:48:16;;;;;;;90.25;54.83;;;;;;;;;;10314517;28;20076;-60
2021/03/07 05:53:13;;;;;;;53.35;36.15;;;;;;;;;;10314985;28;20048;-61
2021/03/07 05:58:13;;;;;;;54.30;34.33;;;;;;;;;;10319220;28;20059;-60
2021/03/07 06:03:12;;;;;;;54.35;35.13;;;;;;;;;;10322065;28;20088;-61
2021/03/07 06:08:10;;;;;;;94.80;51.95;;;;;;;;;;10321944;28;20044;-61
2021/03/07 06:13:10;;;;;;;80.70;50.60;;;;;;;;;;10319948;28;20056;-60
2021/03/07 06:18:24;;;;;;;74.50;47.55;;;;;;;;;;10321755;28;20048;-59
2021/03/07 06:23:33;;;;;;;37.53;30.05;;;;;;;;;;10321455;28;20079;-59
2021/03/07 06:28:31;;;;;;;31.83;25.50;;;;;;;;;;10320508;28;20088;-59
2021/03/07 06:33:30;;;;;;;29.30;22.98;;;;;;;;;;10338107;28;20072;-60
2021/03/07 06:38:43;;;;;;;35.30;15.70;;;;;;;;;;10320050;28;20087;-60
2021/03/07 06:43:40;;;;;;;14.23;11.82;;;;;;;;;;10319803;28;20072;-60
2021/03/07 06:48:39;;;;;;;12.38;11.10;;;;;;;;;;10319163;28;20072;-61
2021/03/07 06:53:37;;;;;;;14.77;12.68;;;;;;;;;;10319630;28;20064;-59
2021/03/07 06:58:34;;;;;;;17.50;12.02;;;;;;;;;;10319730;28;20060;-60
2021/03/07 07:03:32;;;;;;;9.80;8.02;;;;;;;;;;10319615;28;20084;-60
2021/03/07 07:08:44;;;;;;;12.63;10.20;;;;;;;;;;10318690;28;20055;-60
2021/03/07 07:13:43;;;;;;;11.55;10.27;;;;;;;;;;10319197;28;20076;-60
2021/03/07 07:18:55;;;;;;;18.77;14.13;;;;;;;;;;10318824;28;20040;-60
2021/03/07 07:23:53;;;;;;;43.05;32.83;;;;;;;;;;10317643;28;20083;-59
2021/03/07 07:28:51;;;;;;;18.75;15.52;;;;;;;;;;10298267;28;21462;-61
2021/03/07 07:33:51;;;;;;;24.92;18.63;;;;;;;;;;10296797;28;20075;-60
2021/03/07 07:38:50;;;;;;;12.52;10.40;;;;;;;;;;10285417;28;20622;-59
2021/03/07 07:43:51;;;;;;;14.43;11.07;;;;;;;;;;10284203;28;20486;-59
2021/03/07 07:48:48;;;;;;;13.40;8.30;;;;;;;;;;10293091;28;20082;-59
2021/03/07 07:53:45;;;;;;;41.40;24.98;;;;;;;;;;10293626;28;20080;-61
2021/03/07 07:58:50;;;;;;;11.20;9.85;;;;;;;;;;10293188;28;20045;-59
2021/03/07 08:03:49;;;;;;;14.73;11.60;;;;;;;;;;10297583;28;20080;-61
2021/03/07 08:08:47;;;;;;;14.77;12.93;;;;;;;;;;10280988;28;20061;-62
2021/03/07 08:13:48;;;;;;;13.68;9.70;;;;;;;;;;10271186;28;20068;-61
2021/03/07 08:18:49;;;;;;;13.10;11.75;;;;;;;;;;10272300;28;20074;-62
2021/03/07 08:23:53;;;;;;;15.00;13.60;;;;;;;;;;10274389;28;20080;-61
2021/03/07 08:28:51;;;;;;;17.90;15.63;;;;;;;;;;10275841;28;20091;-61
2021/03/07 08:33:49;;;;;;;17.23;15.48;;;;;;;;;;10275897;28;20466;-60
2021/03/07 08:39:14;;;;;;;64.53;15.90;;;;;;;;;;10275452;28;20037;-60
2021/03/07 08:44:12;;;;;;;34.10;16.23;;;;;;;;;;10278226;28;20071;-59
2021/03/07 08:49:11;;;;;;;17.95;12.45;;;;;;;;;;10283170;28;20069;-59
2021/03/07 08:54:10;;;;;;;14.10;11.32;;;;;;;;;;10291698;28;20037;-58
2021/03/07 08:59:08;;;;;;;13.13;9.77;;;;;;;;;;10275230;28;20474;-60
2021/03/07 09:04:07;;;;;;;16.25;12.02;;;;;;;;;;10296009;28;20068;-60
2021/03/07 09:09:07;;;;;;;22.27;13.48;;;;;;;;;;10301380;28;20055;-60
2021/03/07 09:14:04;;;;;;;14.52;12.43;;;;;;;;;;10285341;28;20493;-60
2021/03/07 09:19:01;;;;;;;21.10;13.05;;;;;;;;;;10295564;28;20061;-58
2021/03/07 09:24:09;;;;;;;23.50;16.17;;;;;;;;;;10290583;28;20083;-57
2021/03/07 09:29:08;;;;;;;16.52;13.85;;;;;;;;;;10314328;28;20056;-58
2021/03/07 09:34:05;;;;;;;24.77;19.02;;;;;;;;;;10321038;28;20497;-59
2021/03/07 09:39:04;;;;;;;33.15;17.65;;;;;;;;;;10319905;28;20098;-59
2021/03/07 09:44:03;;;;;;;22.38;16.52;;;;;;;;;;10320740;28;20072;-58
2021/03/07 09:49:02;;;;;;;24.10;14.00;;;;;;;;;;10321229;28;20052;-56
2021/03/07 09:53:59;;;;;;;21.90;15.65;;;;;;;;;;10322682;28;20518;-57
2021/03/07 09:59:08;;;;;;;13.80;12.35;;;;;;;;;;10322489;28;20090;-54
2021/03/07 10:04:23;;;;;;;14.88;13.02;;;;;;;;;;10310214;28;20072;-54
2021/03/07 10:09:21;;;;;;;18.45;14.63;;;;;;;;;;10305163;28;20499;-49
2021/03/07 10:14:23;;;;;;;20.95;18.00;;;;;;;;;;10302175;28;20075;-57
2021/03/07 10:19:21;;;;;;;30.83;22.27;;;;;;;;;;10290830;28;20458;-60
2021/03/07 10:24:19;;;;;;;30.75;18.38;;;;;;;;;;10281126;28;20069;-60
2021/03/07 10:29:20;;;;;;;11.13;9.85;;;;;;;;;;10300087;28;20084;-60
2021/03/07 10:34:30;;;;;;;16.20;12.95;;;;;;;;;;10305948;28;20529;-60
2021/03/07 10:39:27;;;;;;;55.75;33.75;;;;;;;;;;10317590;28;20056;-61
2021/03/07 10:44:27;;;;;;;26.35;17.02;;;;;;;;;;10316701;28;20091;-60
2021/03/07 10:49:24;;;;;;;18.35;11.57;;;;;;;;;;10310862;28;20060;-60
2021/03/07 10:54:23;;;;;;;24.83;19.52;;;;;;;;;;10317701;28;20410;-61
2021/03/07 10:59:20;;;;;;;31.40;20.83;;;;;;;;;;10317894;28;20037;-60
2021/03/07 11:04:18;;;;;;;23.80;14.63;;;;;;;;;;10316933;28;20106;-60
2021/03/07 11:09:15;;;;;;;21.20;18.98;;;;;;;;;;10316985;28;20064;-60
2021/03/07 11:14:14;;;;;;;23.75;17.05;;;;;;;;;;10318825;28;20040;-59
2021/03/07 11:19:12;;;;;;;16.85;13.68;;;;;;;;;;10319338;28;20071;-59
2021/03/07 11:24:10;;;;;;;24.65;16.27;;;;;;;;;;10311097;28;20080;-59
2021/03/07 11:29:07;;;;;;;23.35;17.60;;;;;;;;;;10301625;28;20087;-59
2021/03/07 11:34:05;;;;;;;53.10;36.58;;;;;;;;;;10295607;28;20494;-59
2021/03/07 11:39:03;;;;;;;18.23;12.25;;;;;;;;;;10295153;28;20076;-58
2021/03/07 11:44:00;;;;;;;16.05;12.25;;;;;;;;;;10312104;28;20091;-59
2021/03/07 11:48:57;;;;;;;20.20;15.13;;;;;;;;;;10316135;28;20410;-59
2021/03/07 11:53:56;;;;;;;20.77;16.15;;;;;;;;;;10316545;28;20072;-59
2021/03/07 11:58:53;;;;;;;30.98;21.73;;;;;;;;;;10316661;28;20079;-56
2021/03/07 12:03:50;;;;;;;36.65;21.38;;;;;;;;;;10313219;28;20529;-59
2021/03/07 12:08:48;;;;;;;24.30;17.20;;;;;;;;;;10296582;28;20068;-60
2021/03/07 12:13:46;;;;;;;19.42;16.13;;;;;;;;;;10303890;28;20599;-60
2021/03/07 12:18:44;;;;;;;43.08;21.42;;;;;;;;;;10293754;28;20076;-59
2021/03/07 12:23:41;;;;;;;18.85;15.80;;;;;;;;;;10302401;28;20072;-55
2021/03/07 12:28:38;;;;;;;25.27;18.38;;;;;;;;;;10282795;28;20092;-59
2021/03/07 12:33:36;;;;;;;24.42;16.45;;;;;;;;;;10267889;28;20495;-59
2021/03/07 12:38:35;;;;;;;33.58;21.90;;;;;;;;;;10269533;28;20072;-59
2021/03/07 12:43:33;;;;;;;26.02;19.13;;;;;;;;;;10285272;28;20411;-59
2021/03/07 12:48:30;;;;;;;39.10;22.73;;;;;;;;;;10298804;28;20076;-59
2021/03/07 12:53:33;;;;;;;27.73;17.33;;;;;;;;;;10291721;28;20072;-58
2021/03/07 12:58:30;;;;;;;18.30;13.13;;;;;;;;;;10316199;28;20084;-58
2021/03/07 13:03:28;;;;;;;19.95;16.52;;;;;;;;;;10316265;28;20442;-59
2021/03/07 13:08:25;;;;;;;30.83;22.45;;;;;;;;;;10322507;28;20429;-57
2021/03/07 13:13:23;;;;;;;14.02;11.00;;;;;;;;;;10303910;28;20080;-59
2021/03/07 13:18:20;;;;;;;31.73;20.27;;;;;;;;;;10319607;28;20052;-57
2021/03/07 13:23:19;;;;;;;13.38;11.95;;;;;;;;;;10307479;28;20081;-56
2021/03/07 13:28:17;;;;;;;15.70;11.75;;;;;;;;;;10282637;28;20091;-58
2021/03/07 13:33:15;;;;;;;19.13;15.68;;;;;;;;;;10282636;28;20041;-59
2021/03/07 13:38:13;;;;;;;39.22;27.00;;;;;;;;;;10282390;28;20069;-59
2021/03/07 13:43:10;;;;;;;22.73;15.90;;;;;;;;;;10282429;28;20076;-59
2021/03/07 13:48:08;;;;;;;44.35;32.85;;;;;;;;;;10284690;28;20487;-53
2021/03/07 13:53:09;;;;;;;21.83;16.13;;;;;;;;;;10309106;28;20064;-57
2021/03/07 13:58:06;;;;;;;37.30;24.98;;;;;;;;;;10303556;28;20068;-59
2021/03/07 14:03:04;;;;;;;50.70;30.52;;;;;;;;;;10300418;28;20118;-58
2021/03/07 14:08:02;;;;;;;35.10;21.92;;;;;;;;;;10292823;28;20068;-57
2021/03/07 14:13:00;;;;;;;68.85;42.05;;;;;;;;;;10284718;28;20083;-55
2021/03/07 14:17:57;;;;;;;31.52;22.52;;;;;;;;;;10291333;28;20508;-58
2021/03/07 14:22:55;;;;;;;26.52;18.85;;;;;;;;;;10295062;28;20081;-59
2021/03/07 14:27:52;;;;;;;21.20;17.20;;;;;;;;;;10280483;28;20079;-56
2021/03/07 14:32:50;;;;;;;55.97;32.88;;;;;;;;;;10280033;28;20073;-57
2021/03/07 14:37:48;;;;;;;50.70;32.25;;;;;;;;;;10279910;28;20044;-57
2021/03/07 14:42:45;;;;;;;56.60;36.05;;;;;;;;;;10280231;28;20084;-56
2021/03/07 14:47:43;;;;;;;35.97;24.13;;;;;;;;;;10279577;28;20079;-57
2021/03/07 14:52:42;;;;;;;87.68;45.97;;;;;;;;;;10279915;28;20159;-56
2021/03/07 14:57:39;;;;;;;39.33;24.67;;;;;;;;;;10279196;28;20084;-58
2021/03/07 15:02:40;;;;;;;37.80;22.38;;;;;;;;;;10278822;28;20076;-58
2021/03/07 15:07:38;;;;;;;36.65;21.70;;;;;;;;;;10278796;28;20068;-57
2021/03/07 15:12:36;;;;;;;98.65;51.88;;;;;;;;;;10278547;28;20076;-58
2021/03/07 15:17:33;;;;;;;80.28;41.47;;;;;;;;;;10278384;28;20083;-58
2021/03/07 15:22:31;;;;;;;50.88;31.05;;;;;;;;;;10278263;28;20080;-59
2021/03/07 15:27:28;;;;;;;65.93;36.90;;;;;;;;;;10287153;28;20087;-57
2021/03/07 15:32:26;;;;;;;45.35;28.98;;;;;;;;;;10296001;28;20080;-56
2021/03/07 15:37:24;;;;;;;52.13;35.35;;;;;;;;;;10311592;28;20075;-57
2021/03/07 15:42:21;;;;;;;52.70;31.05;;;;;;;;;;10295118;28;20469;-59
2021/03/07 15:47:19;;;;;;;98.65;49.22;;;;;;;;;;10302362;28;20051;-56
2021/03/07 15:52:17;;;;;;;93.15;50.03;;;;;;;;;;10288402;28;20065;-57
2021/03/07 15:57:14;;;;;;;109.75;60.88;;;;;;;;;;10287092;28;20083;-57
2021/03/07 16:02:12;;;;;;;106.57;63.97;;;;;;;;;;10291443;28;20084;-56
2021/03/07 16:07:10;;;;;;;45.60;32.80;;;;;;;;;;10310254;28;20051;-57
2021/03/07 16:12:09;;;;;;;78.78;46.28;;;;;;;;;;10288767;28;20414;-58
2021/03/07 16:17:06;;;;;;;302.55;159.15;;;;;;;;;;10280607;28;20073;-56
2021/03/07 16:22:04;;;;;;;440.27;233.68;;;;;;;;;;10284733;28;20091;-55
2021/03/07 16:27:01;;;;;;;409.70;212.52;;;;;;;;;;10276759;28;20477;-55
2021/03/07 16:32:00;;;;;;;327.70;167.98;;;;;;;;;;10277262;28;20051;-60
2021/03/07 16:36:57;;;;;;;244.73;121.85;;;;;;;;;;10289255;28;20518;-59
2021/03/07 16:41:55;;;;;;;289.38;156.27;;;;;;;;;;10286611;28;20088;-59
2021/03/07 16:46:52;;;;;;;52.53;34.78;;;;;;;;;;10276413;28;20068;-57
2021/03/07 16:51:51;;;;;;;27.83;19.60;;;;;;;;;;10276211;28;20048;-65
2021/03/07 16:56:48;;;;;;;32.33;23.42;;;;;;;;;;10276155;28;20045;-58
2021/03/07 17:01:46;;;;;;;30.45;19.40;;;;;;;;;;10290728;28;20083;-59
2021/03/07 17:06:43;;;;;;;44.95;32.63;;;;;;;;;;10275722;28;20045;-58
2021/03/07 17:11:41;;;;;;;48.30;39.05;;;;;;;;;;10275660;28;20080;-58
2021/03/07 17:16:39;;;;;;;57.17;41.20;;;;;;;;;;10275641;28;20418;-59
2021/03/07 17:21:40;;;;;;;45.60;36.50;;;;;;;;;;10275665;28;20088;-60
2021/03/07 17:26:37;;;;;;;57.80;47.42;;;;;;;;;;10286599;28;20494;-59
2021/03/07 17:31:35;;;;;;;37.97;31.88;;;;;;;;;;10298036;28;20052;-60
2021/03/07 17:36:33;;;;;;;50.25;37.63;;;;;;;;;;10307376;28;20072;-59
2021/03/07 17:41:30;;;;;;;41.72;35.20;;;;;;;;;;10305849;28;20084;-58
2021/03/07 17:46:28;;;;;;;48.75;40.58;;;;;;;;;;10309116;28;20099;-58
2021/03/07 17:51:26;;;;;;;40.75;30.63;;;;;;;;;;10317332;28;20060;-57
2021/03/07 17:56:38;;;;;;;28.20;24.27;;;;;;;;;;10323061;28;20079;-57
2021/03/07 18:01:35;;;;;;;18.77;16.70;;;;;;;;;;10322704;28;20045;-57
2021/03/07 18:06:33;;;;;;;26.98;21.77;;;;;;;;;;10322678;28;20483;-57
2021/03/07 18:11:31;;;;;;;25.42;21.80;;;;;;;;;;10322942;28;20063;-57
2021/03/07 18:16:28;;;;;;;23.70;18.42;;;;;;;;;;10322392;28;20041;-59
2021/03/07 18:21:26;;;;;;;17.20;13.70;;;;;;;;;;10322133;28;20057;-59
2021/03/07 18:26:24;;;;;;;17.02;13.02;;;;;;;;;;10321965;28;20433;-59
2021/03/07 18:31:22;;;;;;;13.82;11.60;;;;;;;;;;10321198;28;20053;-59
2021/03/07 18:36:20;;;;;;;15.13;11.13;;;;;;;;;;10321567;28;20416;-59
2021/03/07 18:41:17;;;;;;;14.25;12.15;;;;;;;;;;10321912;28;20044;-59
2021/03/07 18:46:16;;;;;;;14.93;11.80;;;;;;;;;;10319526;28;20052;-59
2021/03/07 18:51:14;;;;;;;10.60;9.23;;;;;;;;;;10319330;28;20047;-59
2021/03/07 18:56:11;;;;;;;14.63;11.30;;;;;;;;;;10319220;28;20044;-58
2021/03/07 19:01:10;;;;;;;27.05;17.80;;;;;;;;;;10319352;28;20037;-58
2021/03/07 19:06:08;;;;;;;16.55;12.90;;;;;;;;;;10317846;28;20044;-58
2021/03/07 19:11:09;;;;;;;21.70;15.48;;;;;;;;;;10318544;28;20049;-59
2021/03/07 19:16:07;;;;;;;14.70;11.77;;;;;;;;;;10319971;28;20049;-57
2021/03/07 19:21:16;;;;;;;20.48;14.68;;;;;;;;;;10318882;28;20044;-59
2021/03/07 19:26:13;;;;;;;15.73;11.00;;;;;;;;;;10319612;28;20080;-59
2021/03/07 19:31:11;;;;;;;19.40;13.15;;;;;;;;;;10317928;28;20294;-58
2021/03/07 19:36:15;;;;;;;27.73;15.13;;;;;;;;;;10317324;28;20056;-58
2021/03/07 19:41:13;;;;;;;38.95;18.40;;;;;;;;;;10317430;28;20048;-59
2021/03/07 19:46:22;;;;;;;23.45;12.80;;;;;;;;;;10317148;28;20057;-60
2021/03/07 19:51:27;;;;;;;27.58;14.32;;;;;;;;;;10316433;28;20052;-58
2021/03/07 19:56:25;;;;;;;25.23;13.77;;;;;;;;;;10318434;28;20108;-60
2021/03/07 20:01:25;;;;;;;36.92;19.50;;;;;;;;;;10315905;28;20051;-59
2021/03/07 20:06:37;;;;;;;49.30;23.40;;;;;;;;;;10316291;28;20433;-57
2021/03/07 20:11:35;;;;;;;51.65;26.65;;;;;;;;;;10318257;28;20082;-58
2021/03/07 20:16:35;;;;;;;32.05;18.90;;;;;;;;;;10315309;28;20407;-59
2021/03/07 20:21:37;;;;;;;26.67;16.27;;;;;;;;;;10316047;28;20557;-59
2021/03/07 20:26:38;;;;;;;40.17;23.58;;;;;;;;;;10316463;28;20078;-59
2021/03/07 20:31:43;;;;;;;20.20;13.95;;;;;;;;;;10317097;28;20071;-58
2021/03/07 20:36:41;;;;;;;36.00;21.75;;;;;;;;;;10302149;28;20131;-59
2021/03/07 20:42:08;;;;;;;42.80;25.80;;;;;;;;;;10285502;28;20625;-59
2021/03/07 20:47:08;;;;;;;85.13;45.00;;;;;;;;;;10285437;28;20075;-58
2021/03/07 20:52:07;;;;;;;95.70;48.13;;;;;;;;;;10295603;28;20509;-57
2021/03/07 20:57:05;;;;;;;102.22;48.35;;;;;;;;;;10300650;28;20048;-58
2021/03/07 21:02:02;;;;;;;81.70;40.78;;;;;;;;;;10281790;28;20072;-58
2021/03/07 21:07:00;;;;;;;98.95;51.03;;;;;;;;;;10293496;28;20502;-58
2021/03/07 21:12:02;;;;;;;69.65;37.20;;;;;;;;;;10292999;28;20076;-58
2021/03/07 21:16:59;;;;;;;68.57;39.10;;;;;;;;;;10294127;28;20459;-60
2021/03/07 21:21:57;;;;;;;76.53;41.53;;;;;;;;;;10294884;28;20088;-58
2021/03/07 21:26:54;;;;;;;85.07;46.92;;;;;;;;;;10296058;28;20076;-59
2021/03/07 21:31:52;;;;;;;26.80;16.35;;;;;;;;;;10302553;28;20053;-58
2021/03/07 21:36:50;;;;;;;19.58;13.63;;;;;;;;;;10315810;28;20041;-58
2021/03/07 21:41:48;;;;;;;13.80;11.25;;;;;;;;;;10283054;28;20072;-58
2021/03/07 21:46:45;;;;;;;64.03;36.60;;;;;;;;;;10282217;28;20072;-56
2021/03/07 21:51:46;;;;;;;15.13;13.05;;;;;;;;;;10282859;28;20107;-57
2021/03/07 21:56:43;;;;;;;98.65;62.75;;;;;;;;;;10282656;28;20052;-57
2021/03/07 22:01:40;;;;;;;22.77;16.98;;;;;;;;;;10279849;28;20049;-57
2021/03/07 22:06:38;;;;;;;26.85;20.45;;;;;;;;;;10282156;28;20164;-57
2021/03/07 22:11:36;;;;;;;34.00;23.35;;;;;;;;;;10281865;28;20084;-56
2021/03/07 22:16:50;;;;;;;48.42;32.92;;;;;;;;;;10279982;28;20057;-57
2021/03/07 22:21:47;;;;;;;52.92;38.00;;;;;;;;;;10290102;28;20044;-58
2021/03/07 22:26:45;;;;;;;41.97;30.88;;;;;;;;;;10296856;28;20073;-58
2021/03/07 22:31:43;;;;;;;41.00;27.00;;;;;;;;;;10286955;28;20045;-57
2021/03/07 22:36:40;;;;;;;35.13;25.38;;;;;;;;;;10295327;28;20069;-59
2021/03/07 22:41:37;;;;;;;31.45;23.13;;;;;;;;;;10292655;28;20049;-57
2021/03/07 22:46:36;;;;;;;47.75;34.03;;;;;;;;;;10321309;28;20084;-58
2021/03/07 22:51:33;;;;;;;42.58;29.80;;;;;;;;;;10321302;28;20509;-59
2021/03/07 22:56:30;;;;;;;28.20;21.67;;;;;;;;;;10302632;28;20418;-58
2021/03/07 23:01:28;;;;;;;30.55;22.00;;;;;;;;;;10280471;28;20053;-60
2021/03/07 23:06:26;;;;;;;46.15;34.53;;;;;;;;;;10278102;28;20459;-59
2021/03/07 23:11:23;;;;;;;27.63;18.25;;;;;;;;;;10279602;28;20052;-57
2021/03/07 23:16:21;;;;;;;24.75;15.90;;;;;;;;;;10279491;28;20068;-57
2021/03/07 23:21:19;;;;;;;33.30;19.10;;;;;;;;;;10279248;28;20486;-58
2021/03/07 23:26:17;;;;;;;30.30;18.48;;;;;;;;;;10279449;28;20099;-58
2021/03/07 23:31:15;;;;;;;53.08;28.08;;;;;;;;;;10280032;28;20057;-58
2021/03/07 23:36:12;;;;;;;31.52;18.20;;;;;;;;;;10293555;28;20065;-59
2021/03/07 23:41:09;;;;;;;32.67;17.90;;;;;;;;;;10317235;28;20076;-58
2021/03/07 23:46:07;;;;;;;27.35;16.17;;;;;;;;;;10318818;28;20068;-57
2021/03/07 23:51:05;;;;;;;25.33;16.30;;;;;;;;;;10318556;28;20047;-57
2021/03/07 23:56:03;;;;;;;28.45;17.52;;;;;;;;;;10278168;28;20045;-58
